Time;durP1;ratioP1;P1;durP2;ratioP2;P2;SDS_P1;SDS_P2;PMS_P1;PMS_P2;Temp;Humidity;BMP_temperature;BMP_pressure;BME280_temperature;BME280_humidity;BME280_pressure;Samples;Min_cycle;Max_cycle;Signal;HPM_P1;HPM_P2
2022/04/08 00:02:01;;;;;;;;;;;9.10;87.80;;;;;;5076260;28;19954;-90
2022/04/08 00:04:26;;;;;;;;;;;8.90;87.10;;;;;;5076259;28;19916;-90
2022/04/08 00:06:52;;;;;;;;;;;8.80;87.10;;;;;;5074896;28;20003;-89
2022/04/08 00:09:17;;;;;;;;;;;8.90;87.80;;;;;;5081614;28;19933;-89
2022/04/08 00:11:43;;;;;;;;;;;8.90;88.50;;;;;;5096398;28;20301;-90
2022/04/08 00:14:09;;;;;;;;;;;8.90;88.10;;;;;;5096585;28;19944;-89
2022/04/08 00:16:34;;;;;;;;;;;8.70;87.10;;;;;;5096322;28;20010;-90
2022/04/08 00:19:00;;;;;;;;;;;8.50;87.90;;;;;;5096242;28;19908;-89
2022/04/08 00:21:26;;;;;;;;;;;8.40;88.50;;;;;;5096218;28;19912;-89
2022/04/08 00:23:51;;;;;;;;;;;8.30;89.00;;;;;;5096433;28;19908;-89
2022/04/08 00:26:17;;;;;;;;;;;8.30;89.80;;;;;;5096138;28;19908;-89
2022/04/08 00:28:43;;;;;;;;;;;8.40;90.40;;;;;;5095975;28;20289;-89
2022/04/08 00:31:08;;;;;;;;;;;8.40;90.50;;;;;;5096105;28;19956;-89
2022/04/08 00:33:34;;;;;;;;;;;8.50;90.50;;;;;;5095918;28;19914;-90
2022/04/08 00:36:00;;;;;;;;;;;8.60;90.70;;;;;;5095924;28;19914;-89
2022/04/08 00:38:25;;;;;;;;;;;8.70;90.60;;;;;;5095902;28;19908;-90
2022/04/08 00:40:51;;;;;;;;;;;8.70;90.50;;;;;;5077169;28;19928;-90
2022/04/08 00:43:18;;;;;;;;;;;8.80;90.80;;;;;;5075579;28;20290;-90
2022/04/08 00:45:44;;;;;;;;;;;8.80;90.00;;;;;;5075518;28;19909;-90
2022/04/08 00:48:09;;;;;;;;;;;8.60;88.90;;;;;;5075365;28;19908;-89
2022/04/08 00:50:38;;;;;;;;;;;8.40;89.20;;;;;;5075396;28;19934;-90
2022/04/08 00:53:07;;;;;;;;;;;8.40;89.60;;;;;;5075362;28;19934;-89
2022/04/08 00:55:37;;;;;;;;;;;8.50;90.00;;;;;;5075553;28;19908;-89
2022/04/08 00:58:03;;;;;;;;;;;8.70;90.30;;;;;;5075275;28;20359;-90
2022/04/08 01:00:36;;;;;;;;;;;8.70;90.40;;;;;;5075252;28;19919;-90
2022/04/08 01:03:02;;;;;;;;;;;8.80;90.30;;;;;;5075161;28;19913;-89
2022/04/08 01:05:27;;;;;;;;;;;8.90;90.10;;;;;;5075119;28;19908;-90
2022/04/08 01:07:54;;;;;;;;;;;8.90;90.00;;;;;;5074746;28;19908;-89
2022/04/08 01:10:20;;;;;;;;;;;8.90;89.60;;;;;;5085009;28;19923;-89
2022/04/08 01:12:46;;;;;;;;;;;8.90;89.60;;;;;;5095221;28;19981;-90
2022/04/08 01:15:11;;;;;;;;;;;8.90;89.80;;;;;;5095140;28;19908;-90
2022/04/08 01:17:37;;;;;;;;;;;8.70;88.70;;;;;;5095093;28;19931;-90
2022/04/08 01:20:03;;;;;;;;;;;8.60;88.60;;;;;;5095085;28;19912;-90
2022/04/08 01:22:28;;;;;;;;;;;8.60;89.20;;;;;;5094992;28;19918;-89
2022/04/08 01:25:03;;;;;;;;;;;8.70;90.20;;;;;;5094929;28;19958;-90
2022/04/08 01:27:29;;;;;;;;;;;8.60;89.00;;;;;;5094976;28;20362;-89
2022/04/08 01:29:55;;;;;;;;;;;8.20;87.80;;;;;;5094848;28;19919;-90
2022/04/08 01:32:20;;;;;;;;;;;8.10;88.70;;;;;;5093442;28;19908;-89
2022/04/08 01:34:49;;;;;;;;;;;8.30;90.00;;;;;;5094786;28;20425;-90
2022/04/08 01:37:17;;;;;;;;;;;8.40;90.60;;;;;;5094982;28;19957;-89
2022/04/08 01:39:43;;;;;;;;;;;8.30;89.70;;;;;;5085542;28;19915;-89
2022/04/08 01:42:08;;;;;;;;;;;8.30;89.70;;;;;;5074347;28;20002;-88
2022/04/08 01:44:37;;;;;;;;;;;8.40;89.80;;;;;;5074306;28;19908;-89
2022/04/08 01:47:03;;;;;;;;;;;8.40;89.50;;;;;;5074837;28;19935;-89
2022/04/08 01:49:29;;;;;;;;;;;8.00;88.60;;;;;;5074081;28;20382;-90
2022/04/08 01:51:54;;;;;;;;;;;7.80;90.10;;;;;;5074119;28;19909;-89
2022/04/08 01:54:20;;;;;;;;;;;7.90;90.90;;;;;;5074146;28;19967;-90
2022/04/08 01:56:46;;;;;;;;;;;7.90;91.10;;;;;;5074110;28;19908;-89
2022/04/08 01:59:11;;;;;;;;;;;7.80;89.00;;;;;;5074072;28;19909;-89
2022/04/08 02:01:37;;;;;;;;;;;7.50;89.60;;;;;;5073966;28;20358;-90
2022/04/08 02:04:04;;;;;;;;;;;7.50;91.10;;;;;;5073944;28;19916;-90
2022/04/08 02:06:29;;;;;;;;;;;7.60;91.70;;;;;;5073932;28;19962;-89
2022/04/08 02:08:55;;;;;;;;;;;7.70;92.10;;;;;;5075163;28;19924;-89
2022/04/08 02:11:20;;;;;;;;;;;7.70;92.30;;;;;;5093744;28;19955;-89
2022/04/08 02:13:46;;;;;;;;;;;7.70;92.40;;;;;;5094072;28;19915;-89
2022/04/08 02:16:12;;;;;;;;;;;7.80;92.60;;;;;;5094288;28;19908;-89
2022/04/08 02:18:38;;;;;;;;;;;7.90;92.70;;;;;;5093531;28;20366;-89
2022/04/08 02:21:04;;;;;;;;;;;7.90;92.60;;;;;;5093909;28;19957;-90
2022/04/08 02:23:29;;;;;;;;;;;7.90;92.20;;;;;;5093910;28;19915;-89
2022/04/08 02:25:55;;;;;;;;;;;7.80;91.80;;;;;;5094116;28;19999;-90
2022/04/08 02:28:21;;;;;;;;;;;7.80;91.60;;;;;;5093605;28;19908;-90
2022/04/08 02:30:47;;;;;;;;;;;7.90;91.60;;;;;;5093730;28;19922;-89
2022/04/08 02:33:13;;;;;;;;;;;7.90;91.30;;;;;;5093659;28;19914;-89
2022/04/08 02:35:39;;;;;;;;;;;7.70;90.90;;;;;;5093697;28;19912;-90
2022/04/08 02:38:04;;;;;;;;;;;7.70;90.40;;;;;;5093630;28;19908;-89
2022/04/08 02:40:30;;;;;;;;;;;7.70;89.90;;;;;;5091884;28;19908;-90
2022/04/08 02:42:55;;;;;;;;;;;7.70;89.40;;;;;;5093547;28;19919;-89
2022/04/08 02:45:21;;;;;;;;;;;7.70;88.80;;;;;;5093524;28;19908;-90
2022/04/08 02:47:46;;;;;;;;;;;7.60;88.70;;;;;;5093194;28;19915;-89
2022/04/08 02:50:12;;;;;;;;;;;7.50;88.70;;;;;;5093491;28;20281;-89
2022/04/08 02:52:38;;;;;;;;;;;7.40;89.00;;;;;;5093716;28;20370;-89
2022/04/08 02:55:04;;;;;;;;;;;7.40;89.70;;;;;;5093388;28;20384;-90
2022/04/08 02:57:30;;;;;;;;;;;7.40;90.10;;;;;;5093642;28;19908;-89
2022/04/08 02:59:55;;;;;;;;;;;7.40;90.20;;;;;;5093706;28;20455;-89
2022/04/08 03:02:21;;;;;;;;;;;7.30;91.40;;;;;;5093312;28;19908;-89
2022/04/08 03:04:46;;;;;;;;;;;7.40;91.80;;;;;;5093298;28;19908;-90
2022/04/08 03:07:12;;;;;;;;;;;7.40;91.80;;;;;;5093293;28;19915;-88
2022/04/08 03:09:37;;;;;;;;;;;7.40;91.60;;;;;;5099739;22;20017;-89
2022/04/08 03:12:03;;;;;;;;;;;7.40;91.90;;;;;;5093456;28;19934;-89
2022/04/08 03:14:29;;;;;;;;;;;7.40;91.70;;;;;;5093138;28;19930;-89
2022/04/08 03:16:54;;;;;;;;;;;7.40;91.80;;;;;;5093207;28;19908;-89
2022/04/08 03:19:20;;;;;;;;;;;7.40;91.70;;;;;;5093173;28;19914;-89
2022/04/08 03:21:46;;;;;;;;;;;7.40;91.60;;;;;;5093165;28;19912;-89
2022/04/08 03:24:12;;;;;;;;;;;7.30;91.30;;;;;;5093141;28;20000;-89
2022/04/08 03:26:38;;;;;;;;;;;7.40;91.70;;;;;;5093341;28;20415;-89
2022/04/08 03:29:03;;;;;;;;;;;7.40;91.80;;;;;;5093041;28;19913;-89
2022/04/08 03:31:29;;;;;;;;;;;7.30;91.50;;;;;;5095902;28;19956;-89
2022/04/08 03:33:55;;;;;;;;;;;7.30;91.70;;;;;;5096900;28;20300;-89
2022/04/08 03:36:20;;;;;;;;;;;7.30;91.60;;;;;;5097096;28;19981;-89
2022/04/08 03:38:46;;;;;;;;;;;7.30;91.90;;;;;;5097042;28;19912;-90
2022/04/08 03:41:11;;;;;;;;;;;7.30;91.90;;;;;;5096983;28;19908;-90
2022/04/08 03:43:37;;;;;;;;;;;7.40;91.60;;;;;;5096978;28;19961;-88
2022/04/08 03:46:02;;;;;;;;;;;7.40;91.40;;;;;;5096878;28;19908;-90
2022/04/08 03:48:29;;;;;;;;;;;7.40;91.40;;;;;;5096763;28;19916;-89
2022/04/08 03:50:54;;;;;;;;;;;7.50;91.50;;;;;;5096857;28;19915;-89
2022/04/08 03:53:20;;;;;;;;;;;7.40;91.00;;;;;;5096754;28;19995;-89
2022/04/08 03:55:46;;;;;;;;;;;7.40;90.70;;;;;;5096683;28;19908;-89
2022/04/08 03:58:11;;;;;;;;;;;7.40;90.70;;;;;;5096708;28;19908;-89
2022/04/08 04:00:39;;;;;;;;;;;7.40;90.50;;;;;;5096670;28;19954;-90
2022/04/08 04:03:05;;;;;;;;;;;7.40;90.50;;;;;;5096367;28;19908;-90
2022/04/08 04:05:31;;;;;;;;;;;7.40;90.50;;;;;;5096600;28;20154;-89
2022/04/08 04:07:59;;;;;;;;;;;7.40;91.00;;;;;;5096398;28;19909;-91
2022/04/08 04:10:25;;;;;;;;;;;7.40;90.70;;;;;;5096298;28;19912;-89
2022/04/08 04:12:50;;;;;;;;;;;7.10;89.90;;;;;;5096689;28;19908;-89
2022/04/08 04:15:16;;;;;;;;;;;7.10;91.00;;;;;;5096392;28;19915;-90
2022/04/08 04:17:41;;;;;;;;;;;7.20;91.60;;;;;;5096293;28;19915;-89
2022/04/08 04:20:07;;;;;;;;;;;7.20;91.30;;;;;;5096237;28;19930;-89
2022/04/08 04:22:33;;;;;;;;;;;7.10;91.10;;;;;;5096415;28;19908;-90
2022/04/08 04:24:58;;;;;;;;;;;6.90;90.50;;;;;;5096138;28;19913;-89
2022/04/08 04:27:24;;;;;;;;;;;6.80;90.60;;;;;;5096155;28;20255;-88
2022/04/08 04:29:50;;;;;;;;;;;6.90;92.00;;;;;;5095940;28;19912;-88
2022/04/08 04:32:18;;;;;;;;;;;6.90;92.20;;;;;;5095887;28;19940;-89
2022/04/08 04:34:43;;;;;;;;;;;6.90;92.10;;;;;;5095481;28;19935;-88
2022/04/08 04:37:09;;;;;;;;;;;6.80;91.60;;;;;;5095860;28;20345;-89
2022/04/08 04:39:35;;;;;;;;;;;6.70;90.80;;;;;;5095867;28;19908;-88
2022/04/08 04:42:00;;;;;;;;;;;6.30;89.80;;;;;;5095336;28;19908;-88
2022/04/08 04:44:27;;;;;;;;;;;5.80;89.30;;;;;;5095825;28;20426;-88
2022/04/08 04:46:55;;;;;;;;;;;5.70;92.30;;;;;;5095736;28;20365;-89
2022/04/08 04:52:52;;;;;;;;;;;6.00;94.40;;;;;;5131555;27;20373;-88
2022/04/08 04:55:18;;;;;;;;;;;6.10;94.20;;;;;;5131512;28;20002;-88
2022/04/08 04:57:43;;;;;;;;;;;6.10;94.10;;;;;;5131545;28;19956;-88
2022/04/08 05:00:09;;;;;;;;;;;6.20;94.70;;;;;;5130364;28;19919;-88
2022/04/08 05:02:35;;;;;;;;;;;6.30;94.90;;;;;;5130237;28;19941;-88
2022/04/08 05:05:01;;;;;;;;;;;6.40;94.80;;;;;;5131226;28;19908;-88
2022/04/08 05:07:26;;;;;;;;;;;6.50;94.70;;;;;;5136489;27;19912;-88
2022/04/08 05:09:52;;;;;;;;;;;6.70;94.60;;;;;;5148788;27;19911;-88
2022/04/08 05:12:17;;;;;;;;;;;6.70;94.30;;;;;;5151017;27;19915;-88
2022/04/08 05:14:43;;;;;;;;;;;6.70;94.20;;;;;;5151335;27;19915;-88
2022/04/08 05:17:08;;;;;;;;;;;6.60;93.90;;;;;;5151348;27;19911;-88
2022/04/08 05:19:34;;;;;;;;;;;6.50;93.40;;;;;;5151374;27;19908;-88
2022/04/08 05:21:59;;;;;;;;;;;6.60;93.20;;;;;;5150249;27;19918;-88
2022/04/08 05:24:25;;;;;;;;;;;6.70;93.00;;;;;;5150555;27;20378;-87
2022/04/08 05:26:51;;;;;;;;;;;6.60;92.70;;;;;;5149809;27;19919;-88
2022/04/08 05:29:16;;;;;;;;;;;6.60;92.60;;;;;;5145073;27;19915;-88
2022/04/08 05:31:42;;;;;;;;;;;6.40;91.80;;;;;;5149289;27;19915;-88
2022/04/08 05:34:07;;;;;;;;;;;6.30;91.70;;;;;;5145350;27;20002;-88
2022/04/08 05:36:33;;;;;;;;;;;6.30;91.40;;;;;;5125118;27;19915;-88
2022/04/08 05:38:58;;;;;;;;;;;6.10;91.10;;;;;;5146061;27;19911;-88
2022/04/08 05:41:24;;;;;;;;;;;6.10;91.80;;;;;;5146330;27;19911;-88
2022/04/08 05:43:49;;;;;;;;;;;6.20;92.90;;;;;;5153135;27;20277;-88
2022/04/08 05:46:15;;;;;;;;;;;6.40;93.80;;;;;;5151705;27;20378;-88
2022/04/08 05:48:41;;;;;;;;;;;6.40;94.20;;;;;;5165860;27;19911;-88
2022/04/08 05:51:07;;;;;;;;;;;6.70;94.10;;;;;;5151241;27;20002;-88
2022/04/08 05:53:32;;;;;;;;;;;6.80;94.20;;;;;;5149495;27;20384;-88
2022/04/08 05:55:58;;;;;;;;;;;6.90;94.20;;;;;;5153050;27;19911;-88
2022/04/08 05:58:24;;;;;;;;;;;7.10;94.10;;;;;;5142658;27;20322;-88
2022/04/08 06:00:50;;;;;;;;;;;7.00;93.90;;;;;;5148557;27;19915;-88
2022/04/08 06:03:15;;;;;;;;;;;7.00;93.90;;;;;;5150464;27;19911;-88
2022/04/08 06:05:41;;;;;;;;;;;7.30;93.80;;;;;;5137269;27;20357;-89
2022/04/08 06:08:07;;;;;;;;;;;7.40;93.40;;;;;;5136403;27;19912;-89
2022/04/08 06:10:32;;;;;;;;;;;7.40;93.20;;;;;;5133201;27;19919;-88
2022/04/08 06:12:58;;;;;;;;;;;7.40;93.00;;;;;;5132942;27;19927;-88
2022/04/08 06:15:24;;;;;;;;;;;7.40;93.00;;;;;;5137989;27;19971;-88
2022/04/08 06:17:50;;;;;;;;;;;7.50;92.80;;;;;;5142218;27;20169;-88
2022/04/08 06:20:16;;;;;;;;;;;7.60;92.90;;;;;;5135390;27;19941;-88
2022/04/08 06:22:42;;;;;;;;;;;7.80;92.90;;;;;;5126223;27;19911;-87
2022/04/08 06:25:11;;;;;;;;;;;7.90;93.10;;;;;;5132098;27;19911;-88
2022/04/08 06:27:37;;;;;;;;;;;8.20;93.20;;;;;;5124090;27;20002;-88
2022/04/08 06:30:34;;;;;;;;;;;8.40;93.10;;;;;;5112298;27;19916;-88
2022/04/08 06:33:00;;;;;;;;;;;8.70;92.80;;;;;;5112968;28;19916;-88
2022/04/08 06:35:26;;;;;;;;;;;8.90;92.40;;;;;;5111049;28;19912;-88
2022/04/08 06:37:57;;;;;;;;;;;9.10;91.90;;;;;;5107797;28;20366;-88
2022/04/08 06:40:23;;;;;;;;;;;9.20;91.60;;;;;;5103187;28;20411;-88
2022/04/08 06:42:48;;;;;;;;;;;9.50;91.60;;;;;;5111184;28;19912;-88
2022/04/08 06:45:14;;;;;;;;;;;9.60;90.20;;;;;;5101981;28;19916;-88
2022/04/08 06:48:28;;;;;;;;;;;9.80;90.00;;;;;;5092708;27;19916;-88
2022/04/08 06:50:54;;;;;;;;;;;9.90;90.10;;;;;;5089941;28;19919;-88
2022/04/08 06:53:19;;;;;;;;;;;10.10;90.10;;;;;;5091910;28;19912;-88
2022/04/08 06:55:45;;;;;;;;;;;10.30;89.60;;;;;;5085539;28;19926;-88
2022/04/08 06:58:10;;;;;;;;;;;10.40;89.60;;;;;;5090503;28;19913;-88
2022/04/08 07:00:37;;;;;;;;;;;10.60;89.50;;;;;;5090209;28;20286;-88
2022/04/08 07:03:03;;;;;;;;;;;10.90;89.40;;;;;;5102424;28;19932;-88
2022/04/08 07:05:29;;;;;;;;;;;11.10;89.20;;;;;;5095196;28;19955;-88
2022/04/08 07:07:55;;;;;;;;;;;11.30;88.90;;;;;;5090590;28;19927;-88
2022/04/08 07:10:20;;;;;;;;;;;11.50;88.60;;;;;;5094944;28;19999;-88
2022/04/08 07:12:46;;;;;;;;;;;11.70;87.70;;;;;;5083497;28;19913;-88
2022/04/08 07:15:11;;;;;;;;;;;11.90;86.80;;;;;;5096407;28;19962;-89
2022/04/08 07:17:37;;;;;;;;;;;12.00;86.00;;;;;;5087330;28;19912;-88
2022/04/08 07:20:05;;;;;;;;;;;12.20;85.60;;;;;;5086157;28;19927;-89
2022/04/08 07:22:31;;;;;;;;;;;12.30;83.50;;;;;;5084062;28;19913;-88
2022/04/08 07:24:56;;;;;;;;;;;12.30;83.40;;;;;;5092505;28;19958;-88
2022/04/08 07:27:22;;;;;;;;;;;12.20;83.90;;;;;;5086428;28;19922;-88
2022/04/08 07:29:49;;;;;;;;;;;12.20;83.70;;;;;;5089738;28;20028;-88
2022/04/08 07:32:20;;;;;;;;;;;12.30;83.80;;;;;;5080029;28;19919;-88
2022/04/08 07:34:47;;;;;;;;;;;12.40;83.10;;;;;;5085349;28;19916;-88
2022/04/08 07:37:12;;;;;;;;;;;12.50;82.30;;;;;;5078521;28;19921;-88
2022/04/08 07:39:41;;;;;;;;;;;12.60;82.00;;;;;;5075960;28;20335;-88
2022/04/08 07:42:07;;;;;;;;;;;12.80;81.80;;;;;;5078976;28;19927;-88
2022/04/08 07:44:33;;;;;;;;;;;12.90;81.20;;;;;;5081098;28;19916;-88
2022/04/08 07:46:58;;;;;;;;;;;13.00;80.80;;;;;;5075392;28;19974;-88
2022/04/08 07:49:24;;;;;;;;;;;13.20;80.10;;;;;;5079266;28;20345;-88
2022/04/08 07:51:49;;;;;;;;;;;13.30;79.10;;;;;;5081757;28;20003;-88
2022/04/08 07:54:15;;;;;;;;;;;13.40;78.30;;;;;;5080304;28;19933;-88
2022/04/08 07:56:40;;;;;;;;;;;13.50;77.80;;;;;;5067484;28;19921;-88
2022/04/08 07:59:06;;;;;;;;;;;13.70;78.00;;;;;;5067910;28;19930;-88
2022/04/08 08:01:31;;;;;;;;;;;13.70;77.20;;;;;;5068262;28;20281;-88
2022/04/08 08:03:57;;;;;;;;;;;13.70;77.00;;;;;;5071778;28;19917;-88
2022/04/08 08:06:22;;;;;;;;;;;13.70;76.60;;;;;;5070091;28;19982;-88
2022/04/08 08:08:50;;;;;;;;;;;13.70;75.70;;;;;;5076984;28;19958;-88
2022/04/08 08:11:17;;;;;;;;;;;13.80;75.60;;;;;;5069726;28;20431;-88
2022/04/08 08:13:43;;;;;;;;;;;13.90;75.30;;;;;;5069447;28;19912;-88
2022/04/08 08:16:09;;;;;;;;;;;14.10;74.40;;;;;;5080138;28;19917;-89
2022/04/08 08:18:34;;;;;;;;;;;14.30;74.00;;;;;;5079378;28;19916;-89
2022/04/08 08:21:00;;;;;;;;;;;14.50;73.70;;;;;;5076675;28;19934;-89
2022/04/08 08:23:25;;;;;;;;;;;14.70;73.40;;;;;;5070163;28;20007;-89
2022/04/08 08:25:51;;;;;;;;;;;14.90;73.00;;;;;;5072513;28;19987;-88
2022/04/08 08:28:16;;;;;;;;;;;15.00;71.90;;;;;;5068266;28;19916;-89
2022/04/08 08:30:44;;;;;;;;;;;15.20;71.30;;;;;;5071724;28;19920;-89
2022/04/08 08:33:10;;;;;;;;;;;15.30;71.20;;;;;;5070031;28;19955;-88
2022/04/08 08:35:36;;;;;;;;;;;15.30;69.40;;;;;;5066978;28;19948;-89
2022/04/08 08:38:01;;;;;;;;;;;15.10;70.30;;;;;;5076116;28;19968;-88
2022/04/08 08:40:28;;;;;;;;;;;15.10;70.60;;;;;;5067256;28;20019;-88
2022/04/08 08:42:54;;;;;;;;;;;15.00;70.80;;;;;;5072966;28;20370;-88
2022/04/08 08:45:19;;;;;;;;;;;14.90;71.20;;;;;;5069392;28;19919;-88
2022/04/08 08:47:46;;;;;;;;;;;14.80;71.90;;;;;;5071120;28;20302;-89
2022/04/08 08:50:12;;;;;;;;;;;14.80;72.60;;;;;;5071193;28;19913;-89
2022/04/08 08:52:37;;;;;;;;;;;14.90;72.30;;;;;;5076878;28;19919;-89
2022/04/08 08:55:04;;;;;;;;;;;15.10;71.60;;;;;;5078886;28;19912;-88
2022/04/08 08:57:29;;;;;;;;;;;15.20;72.10;;;;;;5072198;28;19948;-89
2022/04/08 09:00:05;;;;;;;;;;;15.30;71.50;;;;;;5065439;28;19952;-89
2022/04/08 09:02:31;;;;;;;;;;;15.40;71.00;;;;;;5070244;28;20259;-89
2022/04/08 09:04:57;;;;;;;;;;;15.60;70.40;;;;;;5071862;28;20056;-88
2022/04/08 09:07:22;;;;;;;;;;;15.70;69.90;;;;;;5072171;28;19961;-88
2022/04/08 09:09:54;;;;;;;;;;;15.70;70.10;;;;;;5061810;28;19921;-89
2022/04/08 09:12:23;;;;;;;;;;;15.90;70.30;;;;;;5059107;28;19928;-89
2022/04/08 09:14:58;;;;;;;;;;;15.90;70.60;;;;;;5068638;28;20299;-88
2022/04/08 09:17:25;;;;;;;;;;;16.00;69.00;;;;;;5067515;28;19932;-88
2022/04/08 09:19:51;;;;;;;;;;;15.80;70.90;;;;;;5071191;28;20389;-88
2022/04/08 09:22:17;;;;;;;;;;;15.80;70.10;;;;;;5070854;28;19920;-88
2022/04/08 09:24:42;;;;;;;;;;;15.80;71.00;;;;;;5070079;28;19913;-89
2022/04/08 09:27:09;;;;;;;;;;;15.90;71.60;;;;;;5066633;28;19917;-88
2022/04/08 09:29:35;;;;;;;;;;;16.10;72.00;;;;;;5066396;28;20431;-89
2022/04/08 09:32:07;;;;;;;;;;;16.20;71.70;;;;;;5071862;28;19917;-89
2022/04/08 09:34:33;;;;;;;;;;;16.30;70.10;;;;;;5063997;28;19913;-90
2022/04/08 09:37:04;;;;;;;;;;;16.30;70.90;;;;;;5065877;28;19916;-89
2022/04/08 09:39:30;;;;;;;;;;;16.50;68.30;;;;;;5070567;28;20388;-89
2022/04/08 09:41:56;;;;;;;;;;;16.70;69.40;;;;;;5083860;28;19912;-89
2022/04/08 09:44:24;;;;;;;;;;;16.80;68.70;;;;;;5075047;28;19962;-89
2022/04/08 09:46:49;;;;;;;;;;;16.90;68.50;;;;;;5064097;28;20390;-89
2022/04/08 09:49:15;;;;;;;;;;;17.10;69.30;;;;;;5077300;28;19915;-89
2022/04/08 09:51:40;;;;;;;;;;;17.30;71.10;;;;;;5072846;28;19978;-88
2022/04/08 09:54:08;;;;;;;;;;;17.30;67.70;;;;;;5070746;28;20355;-89
2022/04/08 09:56:35;;;;;;;;;;;17.40;68.20;;;;;;5064274;28;19967;-88
2022/04/08 09:59:13;;;;;;;;;;;17.40;67.80;;;;;;5071449;28;20011;-88
2022/04/08 10:01:40;;;;;;;;;;;17.40;66.10;;;;;;5066755;28;19948;-88
2022/04/08 10:04:07;;;;;;;;;;;17.20;66.30;;;;;;5074830;28;19913;-88
2022/04/08 10:06:34;;;;;;;;;;;17.10;66.10;;;;;;5058683;28;19975;-88
2022/04/08 10:09:00;;;;;;;;;;;17.00;66.30;;;;;;5055964;28;20476;-89
2022/04/08 10:11:37;;;;;;;;;;;17.10;67.60;;;;;;5054718;28;19928;-89
2022/04/08 10:14:21;;;;;;;;;;;17.30;67.00;;;;;;5053188;28;19909;-88
2022/04/08 10:16:51;;;;;;;;;;;17.30;67.20;;;;;;5053313;28;19948;-88
2022/04/08 10:19:17;;;;;;;;;;;17.50;67.60;;;;;;5053319;28;19908;-89
2022/04/08 10:21:42;;;;;;;;;;;17.70;68.30;;;;;;5056260;28;19969;-89
2022/04/08 10:24:10;;;;;;;;;;;17.90;68.40;;;;;;5073147;28;20252;-88
2022/04/08 10:26:37;;;;;;;;;;;18.10;68.50;;;;;;5072399;28;19916;-89
2022/04/08 10:29:10;;;;;;;;;;;18.30;67.80;;;;;;5073093;28;19912;-89
2022/04/08 10:31:35;;;;;;;;;;;18.40;66.90;;;;;;5073048;28;19916;-89
2022/04/08 10:34:01;;;;;;;;;;;18.60;64.00;;;;;;5073151;28;19909;-89
2022/04/08 10:36:30;;;;;;;;;;;18.80;62.30;;;;;;5073141;28;19915;-89
2022/04/08 10:39:08;;;;;;;;;;;18.60;61.50;;;;;;5073091;28;19923;-89
2022/04/08 10:41:43;;;;;;;;;;;18.50;64.30;;;;;;5073086;28;19908;-88
2022/04/08 10:44:08;;;;;;;;;;;18.30;62.60;;;;;;5073091;28;20165;-88
2022/04/08 10:46:34;;;;;;;;;;;18.20;61.70;;;;;;5072795;28;20501;-88
2022/04/08 10:49:00;;;;;;;;;;;18.10;61.30;;;;;;5072949;28;20306;-88
2022/04/08 10:51:29;;;;;;;;;;;18.00;61.70;;;;;;5073024;28;20005;-88
2022/04/08 10:54:02;;;;;;;;;;;18.30;62.30;;;;;;5072908;28;20390;-89
2022/04/08 10:56:33;;;;;;;;;;;18.40;62.20;;;;;;5062753;28;19909;-88
2022/04/08 10:58:59;;;;;;;;;;;18.70;61.10;;;;;;5053168;28;19917;-89
2022/04/08 11:01:25;;;;;;;;;;;18.80;59.10;;;;;;5052665;28;19909;-88
2022/04/08 11:03:59;;;;;;;;;;;18.80;58.50;;;;;;5052734;28;20379;-88
2022/04/08 11:06:25;;;;;;;;;;;18.90;58.40;;;;;;5052060;28;20386;-89
2022/04/08 11:08:51;;;;;;;;;;;18.90;60.60;;;;;;5052543;28;20007;-89
2022/04/08 11:11:26;;;;;;;;;;;19.10;60.80;;;;;;5052347;28;19948;-89
2022/04/08 11:13:55;;;;;;;;;;;19.30;58.50;;;;;;5052033;28;19909;-89
2022/04/08 11:16:21;;;;;;;;;;;19.60;59.10;;;;;;5052285;28;19915;-88
2022/04/08 11:18:47;;;;;;;;;;;19.80;59.00;;;;;;5052201;28;19909;-89
2022/04/08 11:21:21;;;;;;;;;;;19.80;58.20;;;;;;5052082;28;20367;-88
2022/04/08 11:24:02;;;;;;;;;;;19.80;56.90;;;;;;5054985;28;19971;-88
2022/04/08 11:26:29;;;;;;;;;;;19.80;57.70;;;;;;5066381;28;19913;-89
2022/04/08 11:28:55;;;;;;;;;;;19.70;57.40;;;;;;5072133;28;19945;-89
2022/04/08 11:31:20;;;;;;;;;;;20.00;57.50;;;;;;5067552;28;19912;-88
2022/04/08 11:33:47;;;;;;;;;;;20.30;57.90;;;;;;5068358;28;19912;-88
2022/04/08 11:36:14;;;;;;;;;;;20.60;57.80;;;;;;5062814;28;19960;-90
2022/04/08 11:38:41;;;;;;;;;;;20.90;55.60;;;;;;5068760;28;19991;-88
2022/04/08 11:41:07;;;;;;;;;;;21.20;54.00;;;;;;5071323;28;19908;-89
2022/04/08 11:43:35;;;;;;;;;;;21.50;52.30;;;;;;5061726;28;20297;-89
2022/04/08 11:46:01;;;;;;;;;;;21.70;52.70;;;;;;5066478;28;20336;-89
2022/04/08 11:48:26;;;;;;;;;;;21.80;54.40;;;;;;5079028;28;19929;-89
2022/04/08 11:50:53;;;;;;;;;;;22.00;52.30;;;;;;5082463;28;20361;-88
2022/04/08 11:53:22;;;;;;;;;;;22.30;50.80;;;;;;5070680;28;19919;-88
2022/04/08 11:55:57;;;;;;;;;;;22.10;51.20;;;;;;5074635;28;19913;-88
2022/04/08 11:58:23;;;;;;;;;;;22.00;50.40;;;;;;5067613;28;19912;-88
2022/04/08 12:00:50;;;;;;;;;;;21.80;51.90;;;;;;5069121;28;19920;-88
2022/04/08 12:03:20;;;;;;;;;;;21.90;51.90;;;;;;5071512;28;20374;-88
2022/04/08 12:05:46;;;;;;;;;;;22.30;49.00;;;;;;5072089;28;20282;-89
2022/04/08 12:08:12;;;;;;;;;;;22.50;48.40;;;;;;5088023;28;19924;-89
2022/04/08 12:10:37;;;;;;;;;;;22.80;51.20;;;;;;5073442;28;19928;-90
2022/04/08 12:13:22;;;;;;;;;;;23.10;51.40;;;;;;5082365;28;19913;-90
2022/04/08 12:15:49;;;;;;;;;;;23.60;48.20;;;;;;5075171;28;19915;-89
2022/04/08 12:18:25;;;;;;;;;;;24.00;48.10;;;;;;5087985;28;19940;-89
2022/04/08 12:20:53;;;;;;;;;;;24.40;43.80;;;;;;5078003;28;19920;-89
2022/04/08 12:23:21;;;;;;;;;;;24.80;44.40;;;;;;5062254;28;19913;-89
2022/04/08 12:25:49;;;;;;;;;;;25.20;43.00;;;;;;5066715;28;19964;-89
2022/04/08 12:28:14;;;;;;;;;;;25.60;43.60;;;;;;5071096;28;19916;-90
2022/04/08 12:30:40;;;;;;;;;;;25.90;43.90;;;;;;5078272;28;20404;-89
2022/04/08 12:33:06;;;;;;;;;;;25.90;41.20;;;;;;5078445;28;19919;-89
2022/04/08 12:35:31;;;;;;;;;;;25.20;42.30;;;;;;5081868;28;19919;-88
2022/04/08 12:37:59;;;;;;;;;;;24.60;43.70;;;;;;5063989;28;19921;-89
2022/04/08 12:40:25;;;;;;;;;;;25.00;44.70;;;;;;5065863;28;19998;-89
2022/04/08 12:42:50;;;;;;;;;;;25.80;43.00;;;;;;5065620;28;20412;-89
2022/04/08 12:45:16;;;;;;;;;;;26.90;39.10;;;;;;5081429;28;19923;-89
2022/04/08 12:47:41;;;;;;;;;;;27.70;37.40;;;;;;5059616;28;19921;-89
2022/04/08 12:50:08;;;;;;;;;;;28.20;39.50;;;;;;5063358;28;19959;-89
2022/04/08 12:52:33;;;;;;;;;;;28.10;37.80;;;;;;5061964;28;19912;-89
2022/04/08 12:54:59;;;;;;;;;;;27.80;38.80;;;;;;5073149;28;19948;-89
2022/04/08 12:57:24;;;;;;;;;;;27.70;39.80;;;;;;5063436;28;19913;-89
2022/04/08 12:59:50;;;;;;;;;;;27.40;39.60;;;;;;5069173;28;19919;-89
2022/04/08 13:02:15;;;;;;;;;;;26.80;39.70;;;;;;5059829;28;20656;-89
2022/04/08 13:04:41;;;;;;;;;;;26.80;40.80;;;;;;5066674;28;20011;-89
2022/04/08 13:07:07;;;;;;;;;;;27.00;41.10;;;;;;5069967;28;20399;-89
2022/04/08 13:09:36;;;;;;;;;;;27.30;39.70;;;;;;5065831;28;20429;-90
2022/04/08 13:12:02;;;;;;;;;;;27.90;41.10;;;;;;5062312;28;19920;-89
2022/04/08 13:14:28;;;;;;;;;;;28.60;38.20;;;;;;5067627;28;19920;-89
2022/04/08 13:16:53;;;;;;;;;;;28.70;36.00;;;;;;5061330;28;19942;-89
2022/04/08 13:19:19;;;;;;;;;;;28.00;37.40;;;;;;5061500;28;19917;-89
2022/04/08 13:21:44;;;;;;;;;;;27.70;40.40;;;;;;5067524;28;19912;-89
2022/04/08 13:24:10;;;;;;;;;;;27.70;38.60;;;;;;5066505;28;19912;-89
2022/04/08 13:26:36;;;;;;;;;;;27.10;40.10;;;;;;5067883;28;19931;-89
2022/04/08 13:29:02;;;;;;;;;;;27.30;39.20;;;;;;5071740;28;19912;-89
2022/04/08 13:31:28;;;;;;;;;;;28.00;37.00;;;;;;5064655;28;19912;-89
2022/04/08 13:33:53;;;;;;;;;;;28.90;37.20;;;;;;5064243;28;19974;-90
2022/04/08 13:36:19;;;;;;;;;;;30.10;34.20;;;;;;5065481;28;19939;-89
2022/04/08 13:38:44;;;;;;;;;;;31.30;32.50;;;;;;5067619;28;19913;-89
2022/04/08 13:41:10;;;;;;;;;;;31.70;33.20;;;;;;5067670;28;19960;-89
2022/04/08 13:43:35;;;;;;;;;;;31.70;32.70;;;;;;5065999;28;19967;-89
2022/04/08 13:46:01;;;;;;;;;;;31.90;32.60;;;;;;5061921;28;19943;-89
2022/04/08 13:48:26;;;;;;;;;;;32.50;30.10;;;;;;5070002;28;19920;-89
2022/04/08 13:50:52;;;;;;;;;;;32.50;30.60;;;;;;5072014;28;19912;-89
2022/04/08 13:53:17;;;;;;;;;;;32.10;30.90;;;;;;5066726;28;20370;-89
2022/04/08 13:55:43;;;;;;;;;;;31.60;33.20;;;;;;5074702;28;19973;-89
2022/04/08 13:58:09;;;;;;;;;;;31.30;33.20;;;;;;5073848;28;19927;-89
2022/04/08 14:00:34;;;;;;;;;;;32.10;31.40;;;;;;5066893;28;19995;-89
2022/04/08 14:03:00;;;;;;;;;;;32.10;32.50;;;;;;5060212;28;19916;-89
2022/04/08 14:05:25;;;;;;;;;;;31.50;32.50;;;;;;5078198;28;20317;-89
2022/04/08 14:07:51;;;;;;;;;;;30.30;32.80;;;;;;5069078;28;20419;-89
2022/04/08 14:10:16;;;;;;;;;;;29.50;34.80;;;;;;5072920;28;19941;-88
2022/04/08 14:12:42;;;;;;;;;;;29.40;36.30;;;;;;5080377;28;19912;-89
2022/04/08 14:15:08;;;;;;;;;;;29.40;36.20;;;;;;5089955;28;20302;-90
2022/04/08 14:17:34;;;;;;;;;;;29.90;35.20;;;;;;5083566;28;19998;-89
2022/04/08 14:19:59;;;;;;;;;;;30.80;36.40;;;;;;5061856;28;20001;-89
2022/04/08 14:22:25;;;;;;;;;;;31.00;36.30;;;;;;5064353;28;20405;-90
2022/04/08 14:24:52;;;;;;;;;;;30.60;36.90;;;;;;5065932;28;20692;-89